ADDS METAR Data INFO
IDs: Format: Raw Decoded Include TAF

Data at: 2241 UTC 22 Aug 2017

KRAS 222235Z AUTO 12011KT 10SM CLR 31/24 A2999 RMK AO2 T03070240
KRAS 222215Z AUTO 12011KT 10SM CLR 31/24 A2998 RMK AO2 T03050242
KRAS 222155Z AUTO 12010KT 10SM CLR 31/24 A2999 RMK AO2 LTG DSNT NW T03110240
KRAS 222135Z AUTO 11013KT 10SM CLR 31/24 A3000 RMK AO2 T03100241
KRAS 222115Z AUTO 11010KT 10SM CLR 31/24 A3000 RMK AO2 T03130240
KRAS 222055Z AUTO 11012KT 10SM CLR 31/25 A3001 RMK AO2 T03130245
KRAS 222035Z AUTO 11011KT 10SM CLR 32/24 A3001 RMK AO2 T03150238
KRAS 222015Z AUTO 11010KT 10SM CLR 32/24 A3002 RMK AO2 T03160240
KRAS 221955Z AUTO 11010KT 10SM CLR 31/24 A3003 RMK AO2 T03120240
KRAS 221935Z AUTO 11011KT 10SM CLR 31/24 A3004 RMK AO2 T03130244
KRAS 221915Z AUTO 11011KT 10SM CLR 31/25 A3004 RMK AO2 T03120245
KRAS 221855Z AUTO 11009KT 10SM SCT018 31/24 A3004 RMK AO2 T03130243
KRAS 221835Z AUTO 12009KT 10SM SCT018 31/24 A3005 RMK AO2 T03120244
KRAS 221815Z AUTO 10009KT 10SM CLR 31/25 A3005 RMK AO2 T03070245
KRAS 221755Z AUTO 10007KT 10SM CLR 31/25 A3006 RMK AO2 T03080245 10310 20271
KRAS 221735Z AUTO 11008KT 10SM CLR 31/24 A3006 RMK AO2 T03060243
KRAS 221715Z AUTO 11007KT 10SM SCT016 31/25 A3006 RMK AO2 T03080245
KRAS 221655Z AUTO 08007KT 10SM SCT016 31/25 A3006 RMK AO2 T03060246
KRAS 221635Z AUTO 10006KT 10SM CLR 30/24 A3006 RMK AO2 T03030243
KRAS 221615Z AUTO 09008KT 10SM CLR 31/24 A3006 RMK AO2 T03050244
KRAS 221555Z AUTO 08008KT 10SM CLR 30/24 A3006 RMK AO2 T03010242
KRAS 221535Z AUTO 11007KT 10SM CLR 30/24 A3005 RMK AO2 T03000243
KRAS 221515Z AUTO 10006KT 10SM CLR 30/24 A3004 RMK AO2 T03000244
KRAS 221455Z AUTO 10005KT 10SM CLR 30/24 A3004 RMK AO2 T02950243
KRAS 221435Z AUTO 09005KT 10SM CLR 29/24 A3003 RMK AO2 T02930243
KRAS 221415Z AUTO 10004KT 10SM CLR 29/24 A3002 RMK AO2 T02930244
KRAS 221355Z AUTO 11004KT 10SM CLR 29/24 A3002 RMK AO2 T02900241
KRAS 221335Z AUTO 12003KT 10SM CLR 29/24 A3001 RMK AO2 T02870240
KRAS 221315Z AUTO 00000KT 10SM CLR 29/24 A3001 RMK AO2 T02850240
KRAS 221255Z AUTO 00000KT 10SM CLR 28/24 A3001 RMK AO2 T02780240
KRAS 221235Z AUTO 00000KT 10SM CLR 27/24 A3001 RMK AO2 T02730240
KRAS 221215Z AUTO 00000KT 10SM CLR 27/24 A3000 RMK AO2 T02710237
KRAS 221155Z AUTO 00000KT 10SM CLR 27/24 A2999 RMK AO2 T02710236 10285 20271
KRAS 221135Z AUTO 17003KT 10SM CLR 27/24 A2999 RMK AO2 T02720236
KRAS 221115Z AUTO 17003KT 10SM CLR 27/24 A2999 RMK AO2 T02730235
KRAS 221055Z AUTO 17003KT 10SM CLR 27/24 A2999 RMK AO2 T02730235
KRAS 221035Z AUTO 17004KT 10SM CLR 27/23 A2999 RMK AO2 T02730233
KRAS 221015Z AUTO 17004KT 10SM CLR 27/23 A2999 RMK AO2 T02740230
KRAS 220955Z AUTO 16004KT 10SM CLR 28/23 A3000 RMK AO2 T02750230
KRAS 220935Z AUTO 17006KT 10SM CLR 28/23 A3000 RMK AO2 T02750230
KRAS 220915Z AUTO 17005KT 10SM CLR 27/23 A3001 RMK AO2 T02740230
KRAS 220855Z AUTO 17005KT 10SM CLR 28/23 A3001 RMK AO2 T02750233
KRAS 220835Z AUTO 16006KT 10SM CLR 28/24 A3001 RMK AO2 T02750235
KRAS 220815Z AUTO 17007KT 10SM CLR 28/24 A3001 RMK AO2 T02760237
KRAS 220755Z AUTO 16008KT 10SM SCT019 28/24 A3002 RMK AO2 T02750235
KRAS 220735Z AUTO 15009G14KT 10SM CLR 28/24 A3002 RMK AO2 T02810240
KRAS 220715Z AUTO 15007KT 10SM CLR 28/24 A3003 RMK AO2 T02820240
KRAS 220655Z AUTO 14008KT 10SM CLR 28/24 A3003 RMK AO2 T02820239
KRAS 220635Z AUTO 15009KT 10SM CLR 28/24 A3004 RMK AO2 T02830239
KRAS 220615Z AUTO 14009KT 10SM CLR 29/24 A3004 RMK AO2 T02850238
KRAS 220555Z AUTO 14008KT 10SM CLR 29/24 A3005 RMK AO2 T02850240 10301 20285 403140277
KRAS 220535Z AUTO 13008KT 10SM CLR 29/24 A3005 RMK AO2 T02850240
KRAS 220515Z AUTO 13007KT 10SM CLR 29/24 A3006 RMK AO2 T02850241
KRAS 220455Z AUTO 12008KT 10SM CLR 29/24 A3006 RMK AO2 T02850242
KRAS 220435Z AUTO 13007KT 10SM CLR 29/24 A3006 RMK AO2 T02860241
KRAS 220415Z AUTO 13010G14KT 10SM CLR 29/24 A3006 RMK AO2 T02870240
KRAS 220355Z AUTO 13011G17KT 10SM CLR 29/24 A3005 RMK AO2 T02870239
KRAS 220335Z AUTO 14009G16KT 10SM CLR 29/24 A3005 RMK AO2 T02880237
KRAS 220315Z AUTO 13010KT 10SM CLR 29/24 A3004 RMK AO2 T02880240
KRAS 220255Z AUTO 12010G17KT 10SM CLR 29/24 A3004 RMK AO2 T02870240
KRAS 220235Z AUTO 12011KT 10SM CLR 29/24 A3003 RMK AO2 T02880240
KRAS 220215Z AUTO 12010G15KT 10SM CLR 29/24 A3002 RMK AO2 T02900244
KRAS 220155Z AUTO 12011KT 10SM CLR 29/24 A3002 RMK AO2 T02900241
KRAS 220135Z AUTO 12009KT 10SM CLR 29/24 A3002 RMK AO2 T02900236
KRAS 220115Z AUTO 11008KT 10SM CLR 29/24 A3002 RMK AO2 T02920241
KRAS 220055Z AUTO 12008KT 10SM SCT021 29/24 A3001 RMK AO2 T02940241
KRAS 220035Z AUTO 11006KT 10SM CLR 30/24 A3001 RMK AO2 T02960241
KRAS 220015Z AUTO 11008KT 10SM CLR 30/24 A3001 RMK AO2 T02980242
KRAS 212355Z AUTO 12007KT 10SM CLR 30/24 A3001 RMK AO2 T03010240 10314 20301
KRAS 212335Z AUTO 11007KT 10SM CLR 30/24 A3000 RMK AO2 T03040240
KRAS 212315Z AUTO 12009KT 10SM CLR 31/24 A3000 RMK AO2 T03070238
KRAS 212255Z AUTO 12009KT 10SM CLR 31/24 A3000 RMK AO2 T03060240
KRAS 212235Z AUTO 11008KT 10SM CLR 31/25 A3000 RMK AO2 T03060245
KRAS 212215Z AUTO 10009KT 10SM CLR 31/24 A3000 RMK AO2 T03070243
KRAS 212155Z AUTO 11007KT 10SM CLR 31/25 A3001 RMK AO2 T03100246
KRAS 212135Z AUTO 11010KT 10SM CLR 31/25 A3001 RMK AO2 T03100245
KRAS 212115Z AUTO 10008KT 10SM CLR 31/24 A3000 RMK AO2 T03100243
KRAS 212055Z AUTO 10008KT 10SM CLR 31/24 A3001 RMK AO2 T03110240
KRAS 212035Z AUTO 09008KT 10SM CLR 31/24 A3002 RMK AO2 T03110241
KRAS 212015Z AUTO 10009KT 10SM CLR 31/25 A3003 RMK AO2 T03120247
KRAS 211955Z AUTO 10008KT 10SM CLR 31/25 A3003 RMK AO2 T03130248
KRAS 211935Z AUTO 12008KT 10SM CLR 31/24 A3003 RMK AO2 T03100242
KRAS 211915Z AUTO 12010KT 10SM CLR 31/24 A3003 RMK AO2 T03050241
KRAS 211855Z AUTO 12007KT 10SM CLR 31/25 A3003 RMK AO2 T03050245
KRAS 211835Z AUTO 11009KT 10SM CLR 30/25 A3003 RMK AO2 T03030245
KRAS 211815Z AUTO 11007KT 10SM CLR 31/25 A3004 RMK AO2 T03050246
KRAS 211755Z AUTO 11007KT 10SM CLR 31/24 A3004 RMK AO2 T03050244 10313 20277
KRAS 211735Z AUTO 10009KT 10SM CLR 31/24 A3005 RMK AO2 T03070244
KRAS 211715Z AUTO 12009KT 10SM CLR 31/25 A3005 RMK AO2 T03090246
KRAS 211655Z AUTO 11008KT 10SM CLR 31/25 A3005 RMK AO2 T03070246
KRAS 211635Z AUTO 12005KT 10SM CLR 31/25 A3005 RMK AO2 T03070246
KRAS 211615Z AUTO 11007KT 10SM SCT021 31/25 A3005 RMK AO2 T03060247
KRAS 211555Z AUTO 09007KT 10SM SCT022 31/25 A3005 RMK AO2 T03050247
KRAS 211535Z AUTO 09006KT 10SM CLR 30/25 A3004 RMK AO2 T03020249
KRAS 211515Z AUTO 12007KT 10SM CLR 30/25 A3004 RMK AO2 T03010247
KRAS 211455Z AUTO 11006KT 10SM SCT023 30/25 A3004 RMK AO2 T03000249
KRAS 211435Z AUTO 11005KT 10SM SCT023 30/25 A3004 RMK AO2 T02990247
KRAS 211415Z AUTO 11005KT 10SM CLR 30/24 A3003 RMK AO2 T03000244
KRAS 211355Z AUTO 13003KT 10SM CLR 30/24 A3003 RMK AO2 T02970241
KRAS 211335Z AUTO 14004KT 10SM CLR 29/24 A3002 RMK AO2 T02940239
KRAS 211315Z AUTO 16003KT 10SM SCT023 29/25 A3002 RMK AO2 T02890245
KRAS 211255Z AUTO 15004KT 10SM BKN023 BKN029 29/25 A3002 RMK AO2 T02850249
KRAS 211235Z AUTO 14004KT 10SM SCT023 28/25 A3001 RMK AO2 T02800251
KRAS 211215Z AUTO 12003KT 10SM CLR 28/25 A3001 RMK AO2 T02780250
KRAS 211155Z AUTO 12003KT 10SM CLR 28/25 A3001 RMK AO2 T02780250 10286 20277
KRAS 211135Z AUTO 00000KT 10SM CLR 28/25 A3000 RMK AO2 T02790250
KRAS 211115Z AUTO 13003KT 10SM CLR 28/25 A3001 RMK AO2 T02800250
KRAS 211055Z AUTO 14003KT 10SM CLR 28/25 A3001 RMK AO2 T02800250